Time;durP1;ratioP1;P1;durP2;ratioP2;P2;SDS_P1;SDS_P2;PMS_P1;PMS_P2;Temp;Humidity;BMP_temperature;BMP_pressure;BME280_temperature;BME280_humidity;BME280_pressure;Samples;Min_cycle;Max_cycle;Signal;HPM_P1;HPM_P2
2021/04/11 00:00:01;;;;;;;18.88;11.43;;;;;;;8.45;78.84;99623.88;10352095;28;20241;-72
2021/04/11 00:05:09;;;;;;;18.23;10.93;;;;;;;8.49;78.88;99617.34;10342540;28;20273;-72
2021/04/11 00:10:15;;;;;;;21.70;10.68;;;;;;;8.45;78.89;99615.84;10350174;28;20719;-73
2021/04/11 00:15:17;;;;;;;18.75;11.27;;;;;;;8.42;78.21;99618.78;10347799;28;20242;-72
2021/04/11 00:20:21;;;;;;;16.70;10.90;;;;;;;8.43;78.36;99613.31;10351438;28;20230;-73
2021/04/11 00:25:25;;;;;;;16.13;9.85;;;;;;;8.40;78.80;99610.91;10349774;28;20242;-72
2021/04/11 00:30:27;;;;;;;18.98;10.70;;;;;;;8.31;78.72;99600.97;10350180;28;20314;-73
2021/04/11 00:35:31;;;;;;;16.00;9.65;;;;;;;8.28;79.32;99607.44;10350614;28;20234;-73
2021/04/11 00:40:36;;;;;;;14.38;9.40;;;;;;;8.25;79.90;99602.31;10324874;28;20712;-73
2021/04/11 00:45:43;;;;;;;14.85;9.70;;;;;;;8.24;79.82;99597.97;10310099;28;20235;-72
2021/04/11 00:50:52;;;;;;;16.05;9.63;;;;;;;8.19;79.92;99586.78;10309043;28;20296;-72
2021/04/11 00:55:55;;;;;;;14.10;9.13;;;;;;;8.16;80.05;99587.91;10330197;28;20235;-73
2021/04/11 01:00:59;;;;;;;18.35;10.15;;;;;;;8.17;80.23;99589.63;10367015;28;20230;-73
2021/04/11 01:06:03;;;;;;;16.58;10.07;;;;;;;8.08;80.61;99577.00;10350571;28;20249;-73
2021/04/11 01:11:09;;;;;;;14.25;9.10;;;;;;;8.09;80.68;99567.13;10351154;28;20244;-73
2021/04/11 01:16:13;;;;;;;14.82;9.70;;;;;;;8.07;80.57;99569.09;10349429;28;20249;-72
2021/04/11 01:21:25;;;;;;;17.00;9.98;;;;;;;8.05;80.98;99552.34;10349730;28;20234;-73
2021/04/11 01:26:32;;;;;;;15.18;9.00;;;;;;;8.02;80.77;99549.91;10364246;28;20325;-73
2021/04/11 01:31:35;;;;;;;17.38;10.20;;;;;;;8.01;81.14;99542.84;10346998;28;20234;-73
2021/04/11 01:36:41;;;;;;;14.45;9.55;;;;;;;7.98;80.99;99529.75;10348930;28;20659;-73
2021/04/11 01:41:45;;;;;;;15.38;9.10;;;;;;;7.99;80.85;99524.28;10363639;28;20234;-73
2021/04/11 01:46:49;;;;;;;15.98;8.75;;;;;;;8.00;81.27;99517.94;10348492;28;20711;-72
2021/04/11 01:51:56;;;;;;;15.00;9.73;;;;;;;8.01;81.03;99511.63;10353371;28;20348;-73
2021/04/11 01:57:05;;;;;;;15.02;9.18;;;;;;;8.02;80.99;99505.28;10354284;28;20296;-72
2021/04/11 02:02:08;;;;;;;15.38;8.85;;;;;;;8.01;80.98;99502.72;10355112;28;20339;-74
2021/04/11 02:07:12;;;;;;;16.33;8.80;;;;;;;8.02;81.01;99504.44;10370131;28;20238;-74
2021/04/11 02:12:22;;;;;;;14.90;8.52;;;;;;;7.98;80.79;99500.31;10354366;28;20303;-73
2021/04/11 02:17:31;;;;;;;12.02;8.18;;;;;;;8.00;80.70;99493.88;10338567;28;20377;-73
2021/04/11 02:22:34;;;;;;;12.73;8.15;;;;;;;8.07;80.79;99483.53;10335091;28;20364;-72
2021/04/11 02:27:42;;;;;;;12.55;8.05;;;;;;;8.10;80.70;99483.25;10351687;28;20245;-73
2021/04/11 02:32:45;;;;;;;15.13;8.93;;;;;;;8.11;80.63;99483.09;10355245;28;20230;-73
2021/04/11 02:37:52;;;;;;;13.27;8.85;;;;;;;8.12;80.53;99473.28;10353236;28;20238;-73
2021/04/11 02:42:58;;;;;;;15.07;9.27;;;;;;;8.15;80.60;99478.38;10355255;28;20679;-73
2021/04/11 02:48:01;;;;;;;16.17;8.73;;;;;;;8.15;80.35;99471.19;10351481;28;20391;-73
2021/04/11 02:53:15;;;;;;;12.43;7.90;;;;;;;8.18;80.37;99475.44;10367631;28;20242;-73
2021/04/11 02:58:22;;;;;;;13.52;8.85;;;;;;;8.17;80.12;99473.72;10369200;28;20400;-72
2021/04/11 03:03:26;;;;;;;15.30;8.07;;;;;;;8.18;80.58;99478.94;10350494;28;20245;-73
2021/04/11 03:08:34;;;;;;;12.05;7.13;;;;;;;8.18;80.62;99472.75;10317974;28;20952;-73
2021/04/11 03:13:40;;;;;;;13.23;8.15;;;;;;;8.14;80.66;99464.13;10326599;28;20277;-72
2021/04/11 03:18:43;;;;;;;12.32;7.50;;;;;;;8.21;80.46;99461.78;10308624;28;21563;-73
2021/04/11 03:23:47;;;;;;;10.10;6.35;;;;;;;8.26;80.50;99466.75;10325631;28;20318;-73
2021/04/11 03:29:03;;;;;;;8.02;5.75;;;;;;;8.30;80.37;99473.50;10308525;28;20261;-73
2021/04/11 03:34:06;;;;;;;9.95;6.75;;;;;;;8.33;80.30;99468.75;10308206;28;20246;-73
2021/04/11 03:39:12;;;;;;;14.15;6.47;;;;;;;8.35;80.63;99456.09;10311305;28;20231;-73
2021/04/11 03:44:22;;;;;;;9.70;6.00;;;;;;;8.41;80.73;99454.69;10309414;28;20261;-72
2021/04/11 03:49:38;;;;;;;10.65;7.28;;;;;;;8.35;80.60;99455.25;10309295;28;20238;-73
2021/04/11 03:54:43;;;;;;;11.98;6.75;;;;;;;8.37;81.00;99450.63;10309048;28;20266;-73
2021/04/11 03:59:51;;;;;;;11.23;6.50;;;;;;;8.32;81.08;99442.13;10310912;28;20243;-73
2021/04/11 04:04:54;;;;;;;8.15;5.90;;;;;;;8.34;80.97;99448.22;10326942;28;20238;-73
2021/04/11 04:10:02;;;;;;;9.30;5.97;;;;;;;8.33;80.96;99459.88;10341298;28;20716;-72
2021/04/11 04:15:41;;;;;;;8.27;5.53;;;;;;;8.36;80.95;99459.59;10363650;28;20751;-73
2021/04/11 04:20:58;;;;;;;11.50;5.88;;;;;;;8.40;80.88;99458.38;10309883;28;20317;-72
2021/04/11 04:26:21;;;;;;;10.73;6.00;;;;;;;8.40;80.74;99459.22;10334497;28;20296;-74
2021/04/11 04:31:46;;;;;;;9.75;6.53;;;;;;;8.42;80.79;99466.25;10353636;28;20241;-73
2021/04/11 04:36:55;;;;;;;9.95;6.10;;;;;;;8.39;80.92;99468.22;10348072;28;20733;-73
2021/04/11 04:42:13;;;;;;;7.35;5.00;;;;;;;8.42;80.88;99461.78;10349465;28;20230;-73
2021/04/11 04:47:22;;;;;;;7.80;5.55;;;;;;;8.44;81.07;99462.47;10346849;28;20242;-73
2021/04/11 04:52:38;;;;;;;6.97;4.93;;;;;;;8.42;80.72;99466.25;10347700;28;20600;-73
2021/04/11 04:57:46;;;;;;;9.45;5.78;;;;;;;8.37;81.04;99470.19;10362381;28;20233;-73
2021/04/11 05:02:56;;;;;;;11.88;5.55;;;;;;;8.35;81.13;99461.44;10363991;28;20226;-73
2021/04/11 05:08:04;;;;;;;10.18;5.50;;;;;;;8.35;81.25;99460.59;10347451;28;20609;-73
2021/04/11 05:13:16;;;;;;;6.47;5.00;;;;;;;8.35;81.18;99461.44;10346101;28;20238;-74
2021/04/11 05:18:33;;;;;;;9.93;6.60;;;;;;;8.37;81.08;99466.66;10266378;28;20801;-73
2021/04/11 05:24:07;;;;;;;10.95;7.07;;;;;;;8.37;81.00;99488.06;10251720;28;20306;-74
2021/04/11 05:29:18;;;;;;;10.18;6.25;;;;;;;8.37;81.22;99482.72;10295895;28;20250;-74
2021/04/11 05:34:24;;;;;;;10.50;6.30;;;;;;;8.39;81.21;99494.13;10292258;28;20612;-74
2021/04/11 05:39:38;;;;;;;7.85;5.38;;;;;;;8.32;81.48;99490.28;10285366;28;20243;-73
2021/04/11 05:44:47;;;;;;;7.65;5.30;;;;;;;8.39;81.24;99496.78;10288525;28;20234;-73
2021/04/11 05:49:57;;;;;;;8.02;5.80;;;;;;;8.19;82.10;99511.88;10285821;28;20231;-72
2021/04/11 05:55:02;;;;;;;10.93;6.55;;;;;;;8.05;82.49;99512.22;10288575;28;20243;-73
2021/04/11 06:00:09;;;;;;;8.80;6.85;;;;;;;8.26;81.85;99504.19;10286690;28;20712;-73
2021/04/11 06:05:23;;;;;;;11.05;7.78;;;;;;;8.47;81.46;99515.75;10287348;28;20599;-72
2021/04/11 06:10:32;;;;;;;10.60;7.20;;;;;;;8.59;81.41;99514.72;10286557;28;20231;-72
2021/04/11 06:15:40;;;;;;;12.95;8.10;;;;;;;8.79;81.40;99526.34;10312216;28;20708;-72
2021/04/11 06:20:47;;;;;;;10.68;8.02;;;;;;;8.70;80.87;99529.84;10347341;28;20246;-72
2021/04/11 06:25:56;;;;;;;11.27;7.97;;;;;;;8.42;80.85;99536.69;10345418;28;20238;-73
2021/04/11 06:31:03;;;;;;;13.05;8.40;;;;;;;8.49;80.83;99542.41;10319942;28;20249;-72
2021/04/11 06:36:10;;;;;;;10.70;7.35;;;;;;;8.37;80.50;99553.13;10352943;28;20242;-73
2021/04/11 06:41:42;;;;;;;9.50;6.43;;;;;;;8.07;79.84;99561.09;10355914;28;20241;-73
2021/04/11 06:47:12;;;;;;;10.48;6.57;;;;;;;8.18;78.94;99559.19;10325147;28;20623;-73
2021/04/11 06:52:40;;;;;;;8.70;5.75;;;;;;;8.23;78.16;99566.84;10351958;28;20238;-73
2021/04/11 06:57:55;;;;;;;8.13;5.25;;;;;;;8.24;77.57;99560.50;10353436;28;21834;-73
2021/04/11 07:03:48;;;;;;;6.43;4.88;;;;;;;8.02;76.79;99590.03;10353422;28;20229;-73
2021/04/11 07:09:10;;;;;;;5.65;3.50;;;;;;;7.90;77.06;99583.88;10354578;28;20234;-73
2021/04/11 07:14:51;;;;;;;6.68;4.40;;;;;;;8.12;78.32;99581.13;10351986;28;20245;-72
2021/04/11 07:20:24;;;;;;;10.75;5.28;;;;;;;7.74;79.64;99573.59;10352115;28;20237;-73
2021/04/11 07:25:52;;;;;;;8.63;5.55;;;;;;;7.93;79.91;99605.03;10352155;28;20237;-74
2021/04/11 07:31:04;;;;;;;8.45;5.53;;;;;;;7.84;79.12;99600.41;10352491;28;20245;-72
2021/04/11 07:36:25;;;;;;;5.60;4.05;;;;;;;6.89;79.24;99627.56;10350731;28;20939;-74
2021/04/11 07:41:42;;;;;;;8.77;6.10;;;;;;;6.98;80.34;99634.00;10350739;28;20900;-74
2021/04/11 07:46:59;;;;;;;7.57;4.95;;;;;;;6.79;80.69;99630.06;10391410;28;20248;-73
2021/04/11 07:52:18;;;;;;;6.70;4.80;;;;;;;6.50;81.09;99637.66;10347971;28;20237;-73
2021/04/11 07:57:34;;;;;;;9.65;5.28;;;;;;;7.03;79.90;99650.53;10370980;28;20253;-74
2021/04/11 08:03:05;;;;;;;6.00;3.92;;;;;;;5.69;80.79;99671.16;10362614;28;20613;-72
2021/04/11 08:08:23;;;;;;;5.82;3.67;;;;;;;5.68;80.88;99688.13;10351394;28;20301;-73
2021/04/11 08:13:52;;;;;;;4.93;3.35;;;;;;;5.73;80.02;99685.97;10353536;28;20851;-73
2021/04/11 08:19:11;;;;;;;5.43;3.60;;;;;;;6.02;80.34;99703.47;10347388;28;20237;-73
2021/04/11 08:24:45;;;;;;;7.38;4.10;;;;;;;5.53;80.75;99713.19;10346688;28;20734;-73
2021/04/11 08:30:24;;;;;;;8.07;4.70;;;;;;;5.14;80.98;99730.97;10309407;28;20242;-73
2021/04/11 08:36:03;;;;;;;7.13;4.60;;;;;;;5.38;81.02;99739.09;10347100;28;20614;-73
2021/04/11 08:41:38;;;;;;;8.13;4.43;;;;;;;5.26;80.46;99739.94;10272158;28;65626;-73
2021/04/11 08:47:00;;;;;;;10.27;5.18;;;;;;;5.43;80.54;99746.75;10346434;28;20231;-74
2021/04/11 08:52:13;;;;;;;12.00;7.20;;;;;;;5.40;79.72;99765.59;10355384;28;20645;-74
2021/04/11 08:57:28;;;;;;;12.23;6.68;;;;;;;5.24;80.45;99777.31;10358657;28;20714;-74
2021/04/11 09:02:55;;;;;;;11.80;6.63;;;;;;;5.19;78.39;99786.59;10349498;28;20699;-74
2021/04/11 09:08:13;;;;;;;12.18;7.32;;;;;;;5.25;77.86;99797.66;10361708;28;20237;-75
2021/04/11 09:13:28;;;;;;;10.68;5.85;;;;;;;5.05;78.14;99804.34;10302108;28;20239;-74
2021/04/11 09:18:38;;;;;;;11.85;6.65;;;;;;;4.78;77.75;99814.13;10348531;28;20235;-76
2021/04/11 09:23:50;;;;;;;11.93;7.45;;;;;;;4.89;77.77;99808.09;10361414;28;20314;-75
2021/04/11 09:29:00;;;;;;;14.02;8.57;;;;;;;5.31;77.87;99803.53;10347753;28;20234;-74
2021/04/11 09:34:41;;;;;;;15.32;9.57;;;;;;;5.18;76.53;99816.81;10348748;28;20241;-75
2021/04/11 09:39:52;;;;;;;14.13;7.30;;;;;;;5.28;75.97;99832.06;10345465;28;20264;-74
2021/04/11 09:45:12;;;;;;;17.07;7.27;;;;;;;5.40;76.00;99846.38;10349231;28;20642;-74
2021/04/11 09:50:27;;;;;;;12.82;6.97;;;;;;;4.87;75.50;99856.09;10355617;28;20234;-74
2021/04/11 09:55:34;;;;;;;13.82;8.07;;;;;;;4.71;75.92;99848.25;10355910;28;20233;-74
2021/04/11 10:00:42;;;;;;;13.00;7.20;;;;;;;4.95;76.42;99861.78;10341846;28;20711;-74
2021/04/11 10:05:53;;;;;;;15.48;8.23;;;;;;;4.93;75.33;99863.69;10347352;28;20230;-74
2021/04/11 10:11:21;;;;;;;16.60;8.32;;;;;;;4.36;76.24;99882.44;10351457;28;20342;-75
2021/04/11 10:16:28;;;;;;;14.30;8.10;;;;;;;4.67;75.67;99875.19;10355020;28;20250;-76
2021/04/11 10:21:42;;;;;;;20.00;9.50;;;;;;;4.57;76.87;99886.41;10365280;28;20234;-73
2021/04/11 10:26:51;;;;;;;15.53;8.60;;;;;;;4.45;76.91;99884.53;10366549;28;60636;-73
2021/04/11 10:32:10;;;;;;;12.27;7.35;;;;;;;4.71;77.08;99884.66;10295953;28;20803;-73
2021/04/11 10:37:22;;;;;;;19.07;8.97;;;;;;;4.61;77.26;99901.22;10297442;28;20708;-75
2021/04/11 10:42:34;;;;;;;16.33;8.25;;;;;;;4.09;77.97;99912.47;10300965;28;20234;-75
2021/04/11 10:48:08;;;;;;;16.33;7.87;;;;;;;4.55;78.22;99920.25;10354161;28;20261;-74
2021/04/11 10:53:43;;;;;;;13.00;7.63;;;;;;;4.85;78.39;99924.53;10353901;28;20238;-74
2021/04/11 10:59:02;;;;;;;13.80;7.07;;;;;;;4.32;76.64;99921.69;10352115;28;20244;-74
2021/04/11 11:04:33;;;;;;;13.65;7.10;;;;;;;4.17;76.27;99947.41;10356655;28;20230;-74
2021/04/11 11:09:42;;;;;;;12.17;6.37;;;;;;;4.16;77.89;99952.81;10354389;28;20242;-75
2021/04/11 11:15:02;;;;;;;13.80;6.93;;;;;;;4.29;77.62;99939.63;10344795;28;20230;-74
2021/04/11 11:20:18;;;;;;;9.97;5.53;;;;;;;4.43;76.54;99947.59;10344509;28;21554;-74
2021/04/11 11:25:32;;;;;;;10.77;5.63;;;;;;;5.01;77.50;99962.56;10355356;28;20244;-74
2021/04/11 11:31:06;;;;;;;12.20;6.20;;;;;;;5.16;77.41;99968.72;10336825;28;20263;-73
2021/04/11 11:36:22;;;;;;;12.40;6.03;;;;;;;4.95;76.53;99978.91;10361580;28;20273;-73
2021/04/11 11:41:37;;;;;;;12.37;5.87;;;;;;;5.07;77.37;99995.91;10350910;28;21817;-74
2021/04/11 11:46:45;;;;;;;8.73;5.40;;;;;;;5.09;76.45;99986.03;10350638;28;20234;-74
2021/04/11 11:51:58;;;;;;;7.23;4.73;;;;;;;5.15;75.77;99996.28;10334437;28;20739;-73
2021/04/11 11:57:22;;;;;;;8.65;4.30;;;;;;;4.83;73.56;99996.50;10359443;28;20241;-74
2021/04/11 12:02:35;;;;;;;3.23;2.83;;;;;;;4.17;75.16;100021.00;10340749;28;20253;-73
2021/04/11 12:07:41;;;;;;;3.30;2.07;;;;;;;4.02;74.46;100029.88;10353506;28;20237;-73
2021/04/11 12:12:55;;;;;;;3.97;2.77;;;;;;;5.04;76.76;100038.69;10352493;28;20261;-74
2021/04/11 12:18:04;;;;;;;3.50;2.80;;;;;;;5.03;75.90;100039.66;10353101;28;20234;-74
2021/04/11 12:23:13;;;;;;;3.90;2.73;;;;;;;3.98;75.82;100055.81;10349280;28;20249;-74
2021/04/11 12:28:25;;;;;;;3.67;3.00;;;;;;;4.56;76.44;100067.41;10347455;28;20889;-74
2021/04/11 12:33:35;;;;;;;7.13;2.87;;;;;;;4.36;75.75;100076.56;10349591;28;20246;-74
2021/04/11 12:38:42;;;;;;;3.03;2.70;;;;;;;4.50;77.74;100076.63;10349346;28;20235;-74
2021/04/11 12:43:51;;;;;;;7.53;3.50;;;;;;;4.13;78.81;100092.09;10363532;28;20997;-74
2021/04/11 12:49:01;;;;;;;3.57;3.17;;;;;;;4.60;79.62;100096.38;10350681;28;20639;-74
2021/04/11 12:54:10;;;;;;;5.80;3.33;;;;;;;4.38;78.22;100102.13;10348435;28;20237;-74
2021/04/11 12:59:19;;;;;;;6.97;3.33;;;;;;;4.50;79.69;100103.22;10363807;28;20768;-74
2021/04/11 13:04:29;;;;;;;4.27;3.37;;;;;;;4.39;81.52;100108.31;10374449;28;20242;-74
2021/04/11 13:09:47;;;;;;;5.97;4.03;;;;;;;4.33;80.21;100120.19;10405077;28;20256;-74
2021/04/11 13:15:01;;;;;;;6.60;3.90;;;;;;;4.20;80.52;100127.16;10325480;28;20615;-75
2021/04/11 13:20:11;;;;;;;6.30;3.83;;;;;;;4.31;79.83;100135.38;10323720;28;20771;-75
2021/04/11 13:25:18;;;;;;;5.03;3.87;;;;;;;4.04;79.49;100151.13;10329754;28;20248;-75
2021/04/11 13:30:26;;;;;;;7.57;4.00;;;;;;;4.07;80.25;100158.06;10316503;28;20447;-75
2021/04/11 13:35:36;;;;;;;4.70;3.83;;;;;;;4.20;80.40;100159.06;10284104;28;21543;-75
2021/04/11 13:40:39;;;;;;;6.50;4.03;;;;;;;4.07;80.81;100172.19;10308230;28;20310;-75
2021/04/11 13:45:47;;;;;;;5.30;3.97;;;;;;;3.91;80.90;100177.53;10349782;28;20237;-75
2021/04/11 13:51:02;;;;;;;6.50;4.57;;;;;;;3.93;81.50;100175.66;10358133;28;20257;-75
2021/04/11 13:56:16;;;;;;;6.80;4.10;;;;;;;3.39;81.25;100188.38;10355531;28;20238;-75
2021/04/11 14:01:26;;;;;;;5.40;4.07;;;;;;;3.65;81.21;100199.41;10372339;28;20699;-75
2021/04/11 14:06:33;;;;;;;6.73;4.10;;;;;;;3.76;80.75;100197.00;10356172;28;20230;-74
2021/04/11 14:11:39;;;;;;;9.03;4.80;;;;;;;3.83;81.37;100208.13;10355717;28;20234;-75
2021/04/11 14:16:48;;;;;;;9.87;4.73;;;;;;;4.00;80.87;100194.75;10354903;28;20238;-75
2021/04/11 14:21:59;;;;;;;6.70;4.27;;;;;;;3.62;79.96;100196.91;10356250;28;20885;-74
2021/04/11 14:27:10;;;;;;;10.13;5.10;;;;;;;4.21;81.17;100198.00;10357338;28;20242;-73
2021/04/11 14:32:20;;;;;;;5.77;4.07;;;;;;;4.40;80.28;100195.13;10359225;28;20372;-74
2021/04/11 14:37:29;;;;;;;5.57;3.77;;;;;;;4.22;79.22;100199.69;10390270;28;20237;-74
2021/04/11 14:42:39;;;;;;;8.33;3.83;;;;;;;4.34;79.86;100191.03;10397179;28;20237;-75
2021/04/11 14:47:46;;;;;;;8.30;4.77;;;;;;;4.85;80.50;100203.97;10395745;28;20237;-74
2021/04/11 14:52:55;;;;;;;6.57;4.20;;;;;;;4.90;80.23;100204.56;10396050;28;20244;-73
2021/04/11 14:58:03;;;;;;;8.50;4.20;;;;;;;4.74;80.07;100219.75;10395137;28;20237;-74
2021/04/11 15:03:24;;;;;;;6.75;4.18;;;;;;;4.39;78.21;100233.31;10393528;28;20233;-74
2021/04/11 15:08:38;;;;;;;5.67;3.40;;;;;;;4.28;78.74;100233.06;10406570;28;20237;-75
2021/04/11 15:13:57;;;;;;;5.40;3.93;;;;;;;4.30;79.20;100234.69;10370859;28;20226;-75
2021/04/11 15:19:12;;;;;;;6.75;3.95;;;;;;;4.13;78.00;100235.66;10312801;28;20242;-76
2021/04/11 15:24:22;;;;;;;8.10;3.90;;;;;;;4.37;79.71;100230.75;10313617;28;20245;-76
2021/04/11 15:29:36;;;;;;;5.93;3.60;;;;;;;4.06;77.26;100234.31;10313541;28;20239;-74
2021/04/11 15:34:50;;;;;;;7.37;3.80;;;;;;;4.14;77.28;100242.69;10349940;28;20234;-74
2021/04/11 15:40:02;;;;;;;4.40;3.27;;;;;;;4.44;77.84;100263.16;10354566;28;20811;-75
2021/04/11 15:45:15;;;;;;;9.10;3.63;;;;;;;5.06;76.70;100255.97;10340819;28;20257;-75
2021/04/11 15:50:23;;;;;;;3.83;2.97;;;;;;;5.67;76.44;100269.16;10360925;28;20605;-74
2021/04/11 15:55:35;;;;;;;7.50;2.95;;;;;;;5.49;71.10;100271.16;10356603;28;21797;-76
2021/04/11 16:00:47;;;;;;;8.13;3.50;;;;;;;5.67;74.10;100279.81;10357332;28;20230;-75
2021/04/11 16:05:57;;;;;;;7.82;5.38;;;;;;;5.45;72.48;100286.47;10348895;28;20242;-74
2021/04/11 16:11:18;;;;;;;5.43;3.25;;;;;;;5.38;71.27;100301.13;10352116;28;20537;-73
2021/04/11 16:16:34;;;;;;;7.17;4.80;;;;;;;5.36;71.49;100289.69;10348108;28;20233;-75
2021/04/11 16:21:46;;;;;;;4.57;2.87;;;;;;;5.21;69.50;100306.59;10348217;28;20726;-75
2021/04/11 16:26:57;;;;;;;3.60;2.77;;;;;;;5.27;69.67;100299.09;10346086;28;21392;-74
2021/04/11 16:32:08;;;;;;;6.10;2.70;;;;;;;5.01;66.69;100307.78;10348916;28;20238;-75
2021/04/11 16:37:26;;;;;;;3.57;2.60;;;;;;;5.48;69.49;100323.56;10334365;28;20239;-75
2021/04/11 16:42:36;;;;;;;3.50;2.72;;;;;;;5.89;72.79;100317.50;10344609;28;59382;-75
2021/04/11 16:47:46;;;;;;;4.57;2.90;;;;;;;5.71;69.24;100319.50;10364381;28;20233;-74
2021/04/11 16:53:00;;;;;;;4.13;3.03;;;;;;;5.50;69.09;100332.34;10346677;28;20233;-73
2021/04/11 16:58:08;;;;;;;11.45;4.85;;;;;;;4.96;69.12;100345.28;10360400;28;20722;-73
2021/04/11 17:03:21;;;;;;;4.15;3.05;;;;;;;4.91;71.03;100349.16;10330707;28;20241;-74
2021/04/11 17:08:33;;;;;;;4.97;3.30;;;;;;;4.59;68.37;100352.72;10349419;28;20226;-75
2021/04/11 17:13:46;;;;;;;6.65;3.08;;;;;;;4.55;71.30;100364.50;10381224;28;20237;-75
2021/04/11 17:19:19;;;;;;;7.20;3.30;;;;;;;4.62;72.04;100370.31;10308292;28;20231;-75
2021/04/11 17:24:27;;;;;;;4.73;3.53;;;;;;;4.40;69.05;100376.00;10345481;28;20738;-75
2021/04/11 17:29:38;;;;;;;4.55;2.85;;;;;;;4.54;70.74;100392.03;10361436;28;20240;-75
2021/04/11 17:34:48;;;;;;;3.67;2.90;;;;;;;4.61;72.17;100396.09;10361002;28;20241;-75
2021/04/11 17:39:51;;;;;;;5.03;3.38;;;;;;;4.57;70.84;100406.97;10350493;28;20229;-75
2021/04/11 17:45:04;;;;;;;7.82;4.38;;;;;;;4.58;71.18;100408.66;10386382;28;20237;-76
2021/04/11 17:50:13;;;;;;;2.93;2.50;;;;;;;4.60;72.32;100415.63;10380310;28;61888;-73
2021/04/11 17:55:24;;;;;;;4.10;3.20;;;;;;;4.58;72.54;100430.84;10368095;28;20234;-73
2021/04/11 18:00:36;;;;;;;3.40;2.50;;;;;;;4.55;72.74;100448.75;10337832;28;82699;-76
2021/04/11 18:05:46;;;;;;;4.97;2.97;;;;;;;4.60;74.48;100452.88;10345681;28;20237;-75
2021/04/11 18:11:02;;;;;;;4.83;2.70;;;;;;;4.55;74.52;100465.59;10354244;28;20737;-74
2021/04/11 18:16:15;;;;;;;3.47;2.60;;;;;;;4.55;76.06;100470.03;10362911;28;20325;-76
2021/04/11 18:21:21;;;;;;;7.10;3.73;;;;;;;4.49;76.13;100471.22;10345603;28;20241;-73
2021/04/11 18:26:28;;;;;;;5.18;3.10;;;;;;;4.36;75.00;100475.50;10344781;28;20738;-74
2021/04/11 18:31:37;;;;;;;5.43;3.45;;;;;;;4.21;72.60;100494.94;10347755;28;20307;-74
2021/04/11 18:36:45;;;;;;;7.40;3.83;;;;;;;4.28;72.98;100512.28;10352542;28;20272;-73
2021/04/11 18:42:04;;;;;;;5.87;3.33;;;;;;;4.32;74.96;100525.34;10379508;28;20241;-74
2021/04/11 18:47:17;;;;;;;9.67;4.57;;;;;;;4.30;74.32;100529.03;10364324;28;20241;-74
2021/04/11 18:52:36;;;;;;;4.72;4.00;;;;;;;4.20;72.55;100526.00;10393377;28;20710;-74
2021/04/11 18:57:47;;;;;;;7.50;4.70;;;;;;;4.22;73.76;100534.72;10393217;28;20233;-73
2021/04/11 19:03:09;;;;;;;12.23;7.30;;;;;;;4.17;73.24;100550.09;10392699;28;20242;-74
2021/04/11 19:08:33;;;;;;;6.22;4.35;;;;;;;4.14;73.86;100550.22;10395068;28;20245;-74
2021/04/11 19:14:02;;;;;;;5.73;4.10;;;;;;;4.13;73.22;100553.84;10358131;28;20234;-73
2021/04/11 19:19:08;;;;;;;5.30;3.27;;;;;;;3.88;70.04;100562.19;10355605;28;20256;-75
2021/04/11 19:24:47;;;;;;;4.70;3.50;;;;;;;3.97;72.42;100580.34;10366808;28;20230;-73
2021/04/11 19:30:22;;;;;;;5.37;3.03;;;;;;;3.72;71.39;100581.56;10370065;28;20265;-75
2021/04/11 19:35:59;;;;;;;7.47;4.17;;;;;;;3.96;73.91;100594.56;10352029;28;20727;-74
2021/04/11 19:41:39;;;;;;;5.23;3.60;;;;;;;3.75;72.29;100604.47;10352925;28;20226;-74
2021/04/11 19:46:51;;;;;;;7.03;4.13;;;;;;;3.87;73.56;100600.34;10279309;28;20238;-75
2021/04/11 19:52:15;;;;;;;4.77;3.60;;;;;;;3.92;74.46;100608.94;10381154;28;20242;-73
2021/04/11 19:57:47;;;;;;;5.37;3.90;;;;;;;3.69;72.76;100602.97;10349634;28;20337;-75
2021/04/11 20:03:24;;;;;;;5.77;3.73;;;;;;;3.53;72.32;100615.28;10331483;28;20231;-75
2021/04/11 20:08:34;;;;;;;6.00;3.70;;;;;;;3.54;72.38;100618.78;10331824;28;20238;-75
2021/04/11 20:14:07;;;;;;;9.03;3.70;;;;;;;3.55;72.74;100618.72;10347090;28;21455;-72
2021/04/11 20:19:35;;;;;;;7.33;3.77;;;;;;;3.52;73.57;100618.88;10314577;28;20220;-74
2021/04/11 20:24:54;;;;;;;9.13;4.30;;;;;;;3.28;71.67;100627.06;10301794;28;20235;-75
2021/04/11 20:30:02;;;;;;;5.77;4.03;;;;;;;3.37;72.68;100624.91;10309888;28;20243;-74
2021/04/11 20:35:28;;;;;;;9.03;3.43;;;;;;;3.21;72.03;100622.97;10308358;28;20617;-73
2021/04/11 20:40:42;;;;;;;5.40;4.20;;;;;;;3.44;72.80;100634.31;10290001;28;20231;-74
2021/04/11 20:45:58;;;;;;;6.93;3.70;;;;;;;3.32;71.48;100642.84;10301112;28;20239;-76
2021/04/11 20:51:31;;;;;;;5.73;3.57;;;;;;;3.41;71.81;100656.56;10302236;28;20246;-75
2021/04/11 20:56:54;;;;;;;5.43;3.30;;;;;;;3.47;71.46;100647.44;10301892;28;20246;-75
2021/04/11 21:02:11;;;;;;;5.13;3.23;;;;;;;3.48;71.72;100652.69;10309975;28;20242;-75
2021/04/11 21:07:37;;;;;;;4.83;3.60;;;;;;;3.38;70.94;100667.31;10310061;28;20235;-75
2021/04/11 21:13:06;;;;;;;5.00;3.53;;;;;;;3.42;71.59;100666.25;10338879;28;20235;-76
2021/04/11 21:18:25;;;;;;;6.30;3.43;;;;;;;3.39;70.24;100670.84;10267903;28;20242;-74
2021/04/11 21:23:45;;;;;;;8.47;3.60;;;;;;;3.30;70.44;100680.09;10310614;28;20253;-73
2021/04/11 21:29:18;;;;;;;4.73;3.10;;;;;;;3.36;70.54;100692.22;10272680;28;20227;-75
2021/04/11 21:34:50;;;;;;;5.40;3.70;;;;;;;3.03;69.64;100706.09;10270073;28;20240;-75
2021/04/11 21:40:11;;;;;;;6.70;3.60;;;;;;;3.30;70.06;100717.28;10271735;28;20657;-75
2021/04/11 21:45:22;;;;;;;5.87;3.40;;;;;;;3.28;69.82;100724.44;10271999;28;20243;-74
2021/04/11 21:50:37;;;;;;;4.40;3.20;;;;;;;3.30;70.05;100729.69;10268889;28;20243;-73
2021/04/11 21:55:58;;;;;;;7.07;4.07;;;;;;;3.26;69.94;100731.59;10268112;28;20246;-75
2021/04/11 22:01:05;;;;;;;7.13;3.90;;;;;;;3.11;69.06;100738.47;10312928;28;21967;-75
2021/04/11 22:06:16;;;;;;;5.47;3.40;;;;;;;3.14;68.78;100746.31;10312610;28;20235;-75
2021/04/11 22:11:26;;;;;;;3.70;2.90;;;;;;;3.07;68.34;100760.75;10316401;28;20238;-75
2021/04/11 22:16:37;;;;;;;6.73;3.40;;;;;;;3.19;68.82;100765.53;10344856;28;20238;-75
2021/04/11 22:21:44;;;;;;;4.47;3.10;;;;;;;3.16;68.69;100776.31;10359782;28;20592;-73
2021/04/11 22:27:07;;;;;;;4.67;3.37;;;;;;;3.13;69.32;100768.47;10354931;28;20237;-76
2021/04/11 22:32:18;;;;;;;7.83;3.33;;;;;;;3.05;69.53;100775.91;10357979;28;20236;-74
2021/04/11 22:37:25;;;;;;;8.37;3.67;;;;;;;2.75;69.77;100786.91;10358296;28;20245;-75
2021/04/11 22:42:33;;;;;;;10.00;3.43;;;;;;;2.55;70.19;100795.69;10356092;28;20234;-75
2021/04/11 22:47:42;;;;;;;7.70;3.80;;;;;;;2.48;70.17;100811.88;10354776;28;20237;-72
2021/04/11 22:52:49;;;;;;;7.37;3.07;;;;;;;2.61;70.17;100826.41;10354648;28;21107;-74
2021/04/11 22:58:02;;;;;;;7.93;3.40;;;;;;;2.47;70.38;100824.28;10356063;28;20226;-75
2021/04/11 23:03:11;;;;;;;5.67;2.97;;;;;;;2.32;70.47;100832.84;10329717;28;20321;-73
2021/04/11 23:08:20;;;;;;;5.27;3.17;;;;;;;2.08;70.82;100840.81;10355342;28;20238;-75
2021/04/11 23:13:25;;;;;;;2.93;2.63;;;;;;;1.98;70.90;100865.97;10354103;28;20231;-72
2021/04/11 23:18:44;;;;;;;2.57;2.37;;;;;;;1.83;70.40;100855.94;10349577;28;20229;-74
2021/04/11 23:23:53;;;;;;;3.33;2.40;;;;;;;1.77;70.41;100864.97;10352820;28;20233;-74
2021/04/11 23:29:12;;;;;;;3.10;2.57;;;;;;;1.80;70.40;100864.84;10354339;28;20222;-74
2021/04/11 23:34:22;;;;;;;5.80;2.23;;;;;;;1.71;70.35;100873.16;10370204;28;20234;-75
2021/04/11 23:39:30;;;;;;;5.80;2.57;;;;;;;1.69;70.75;100880.28;10368210;28;20615;-74
2021/04/11 23:44:41;;;;;;;5.33;1.90;;;;;;;1.60;71.11;100892.06;10354991;28;20237;-74
2021/04/11 23:49:54;;;;;;;5.33;2.73;;;;;;;1.43;71.17;100905.91;10351154;28;20240;-76
2021/04/11 23:55:00;;;;;;;2.60;1.80;;;;;;;1.53;71.07;100916.16;10354834;28;20230;-74
